Hauptseite
METAR-TAF:

METAR-TAF

Flughäfen :

Bratsk, Russland

Breite: 56-22-15N, Länge: 101-41-55E, Höhe: 490 m

Beobachtung

Neuester Wetterbericht von vor 45 Minuten, um 21:30 UTC
Wind 2 kt aus unterschiedlichen Richtungen
Temperatur 7°C
Luftfeuchtigkeit 42%
Luftdruck 1014 hPa
Sichtweite 10 km oder mehr

METAR: UIBB 202130Z AUTO VRB01MPS 9999 // NSC 07/M05 Q1014 RMK QFE717/0957

Zeit: 06:15 (22:15 UTC)

Prognose

Neuester Wetterbericht von vor 2 Stunden und 15 Minuten, um 20:00 UTC
Gültige Prognose vom 20 um 21 UTC bis 21 um 21 UTC
Wind 6 kt aus Nordwest
Sichtweite 10 km oder mehr
Leicht bewölkt in der Höhe von 400 ft
Aufgelockert bewölkt in der Höhe von 5000 ft, Kumulonimbus.
Übergehend zu
vom 21 um 08 UTC bis 21 um 10 UTC
Wind 10 kt aus Ost

TAF: UIBB 202000Z 2021/2121 32003MPS 9999 FEW004 SCT050CB BECMG 2108/2110 09005MPS

Wetterbeobachtungen und Prognosen von mehr als 4000 Flughäfen (METAR und TAF Bericht).

Die verfügbaren Stationen werden durch gelbe und rote Markierungen auf der Karte dargestellt.

Führen Sie die Maus auf sie, um den Namen der Station zu sehen.

Darauf klicken, um die Beobachtung von Wetterbeobachtungen und Prognosen zu sehen.

Um die Karte zu ändern : klicken Sie auf den grünen Tasten mit einem schwarzen Kreuz Zum Vergrößern, auf den grünen Button mit einem Gedankenstrich zu verkleinern, oder auf die grünen Pfeile für benachbarte Karten.


METAR-TAF: